Time;durP1;ratioP1;P1;durP2;ratioP2;P2;SDS_P1;SDS_P2;PMS_P1;PMS_P2;Temp;Humidity;BMP_temperature;BMP_pressure;BME280_temperature;BME280_humidity;BME280_pressure;Samples;Min_cycle;Max_cycle;Signal;HPM_P1;HPM_P2
2021/10/19 00:00:12;;;;;;;;;;;13.20;43.60;;;;;;4343869;33;20487;-39
2021/10/19 00:02:39;;;;;;;;;;;13.10;43.70;;;;;;4344921;32;20404;-38
2021/10/19 00:05:06;;;;;;;;;;;13.00;43.80;;;;;;4345010;32;19994;-40
2021/10/19 00:07:32;;;;;;;;;;;12.90;43.90;;;;;;4345058;32;20010;-39
2021/10/19 00:09:58;;;;;;;;;;;12.80;44.00;;;;;;4344534;32;20046;-40
2021/10/19 00:12:24;;;;;;;;;;;12.80;44.20;;;;;;4344689;32;20481;-39
2021/10/19 00:14:51;;;;;;;;;;;12.80;44.40;;;;;;4343538;33;19993;-39
2021/10/19 00:17:20;;;;;;;;;;;12.80;44.50;;;;;;4331705;33;19967;-40
2021/10/19 00:19:48;;;;;;;;;;;12.80;44.60;;;;;;4343523;33;20084;-40
2021/10/19 00:22:15;;;;;;;;;;;12.80;44.60;;;;;;4349532;32;19986;-39
2021/10/19 00:24:42;;;;;;;;;;;12.80;44.70;;;;;;4359507;32;20043;-39
2021/10/19 00:27:08;;;;;;;;;;;12.90;44.60;;;;;;4359860;32;20422;-40
2021/10/19 00:29:34;;;;;;;;;;;12.90;44.60;;;;;;4358016;32;19969;-39
2021/10/19 00:32:00;;;;;;;;;;;12.90;44.60;;;;;;4358009;32;19961;-39
2021/10/19 00:34:27;;;;;;;;;;;12.90;44.70;;;;;;4359357;32;19968;-39
2021/10/19 00:36:53;;;;;;;;;;;12.90;44.70;;;;;;4357754;32;19982;-39
2021/10/19 00:39:19;;;;;;;;;;;12.80;44.60;;;;;;4359621;32;19974;-39
2021/10/19 00:41:45;;;;;;;;;;;12.80;44.70;;;;;;4359242;32;20037;-40
2021/10/19 00:44:11;;;;;;;;;;;12.70;44.70;;;;;;4358953;32;19977;-39
2021/10/19 00:46:40;;;;;;;;;;;12.70;44.90;;;;;;4359406;32;19966;-40
2021/10/19 00:49:06;;;;;;;;;;;12.70;45.00;;;;;;4359037;32;20069;-37
2021/10/19 00:51:32;;;;;;;;;;;12.80;45.20;;;;;;4359278;32;19978;-40
2021/10/19 00:53:59;;;;;;;;;;;12.90;45.20;;;;;;4359126;32;19961;-39
2021/10/19 00:56:25;;;;;;;;;;;12.90;45.00;;;;;;4359385;32;19975;-39
2021/10/19 00:58:51;;;;;;;;;;;13.00;45.00;;;;;;4359582;32;19970;-39
2021/10/19 01:01:18;;;;;;;;;;;13.10;44.90;;;;;;4358924;32;19962;-40
2021/10/19 01:03:44;;;;;;;;;;;13.10;44.80;;;;;;4358918;32;20490;-39
2021/10/19 01:06:10;;;;;;;;;;;13.20;44.80;;;;;;4358649;32;19978;-39
2021/10/19 01:08:37;;;;;;;;;;;13.20;44.60;;;;;;4345189;32;19966;-40
2021/10/19 01:11:04;;;;;;;;;;;13.20;44.60;;;;;;4358923;32;19985;-39
2021/10/19 01:13:31;;;;;;;;;;;13.30;44.70;;;;;;4345027;32;19974;-39
2021/10/19 01:16:05;;;;;;;;;;;13.20;44.50;;;;;;4359230;32;19973;-39
2021/10/19 01:18:31;;;;;;;;;;;13.20;45.20;;;;;;4359028;32;20371;-38
2021/10/19 01:20:57;;;;;;;;;;;13.20;44.50;;;;;;4359126;32;19974;-39
2021/10/19 01:23:23;;;;;;;;;;;13.20;44.60;;;;;;4358365;32;19963;-38
2021/10/19 01:25:50;;;;;;;;;;;13.20;44.60;;;;;;4358778;32;20419;-38
2021/10/19 01:28:16;;;;;;;;;;;13.20;44.60;;;;;;4358898;32;20070;-38
2021/10/19 01:30:43;;;;;;;;;;;13.10;44.70;;;;;;4358768;32;19973;-39
2021/10/19 01:33:09;;;;;;;;;;;13.10;44.80;;;;;;4358556;32;20461;-39
2021/10/19 01:35:46;;;;;;;;;;;13.00;44.80;;;;;;4358499;32;19967;-39
2021/10/19 01:38:17;;;;;;;;;;;12.90;44.90;;;;;;4358921;32;19963;-39
2021/10/19 01:40:43;;;;;;;;;;;12.80;45.10;;;;;;4362234;32;19969;-40
2021/10/19 01:43:14;;;;;;;;;;;12.90;45.30;;;;;;4363545;32;19970;-40
2021/10/19 01:45:41;;;;;;;;;;;12.80;45.30;;;;;;4368084;32;20062;-40
2021/10/19 01:48:07;;;;;;;;;;;12.80;45.40;;;;;;4378670;32;19982;-39
2021/10/19 01:50:33;;;;;;;;;;;12.70;45.50;;;;;;4378488;32;20027;-39
2021/10/19 01:53:00;;;;;;;;;;;12.70;45.60;;;;;;4378629;32;20409;-39
2021/10/19 01:55:26;;;;;;;;;;;12.70;45.80;;;;;;4379042;32;20407;-40
2021/10/19 01:57:52;;;;;;;;;;;12.70;45.90;;;;;;4378437;32;20393;-39
2021/10/19 02:00:18;;;;;;;;;;;12.70;45.90;;;;;;4378524;32;19973;-40
2021/10/19 02:02:45;;;;;;;;;;;12.70;46.00;;;;;;4378161;32;19963;-40
2021/10/19 02:05:11;;;;;;;;;;;12.70;46.00;;;;;;4378410;32;19958;-40
2021/10/19 02:07:37;;;;;;;;;;;12.80;46.00;;;;;;4378548;32;20439;-39
2021/10/19 02:10:05;;;;;;;;;;;12.80;46.00;;;;;;4378568;32;19994;-39
2021/10/19 02:12:31;;;;;;;;;;;12.80;46.10;;;;;;4378288;32;19955;-39
2021/10/19 02:14:57;;;;;;;;;;;12.80;46.10;;;;;;4378320;32;19968;-39
2021/10/19 02:17:23;;;;;;;;;;;12.80;46.10;;;;;;4378364;32;20402;-40
2021/10/19 02:19:49;;;;;;;;;;;12.80;46.20;;;;;;4364382;32;19968;-39
2021/10/19 02:22:15;;;;;;;;;;;12.80;46.20;;;;;;4378406;32;19981;-39
2021/10/19 02:24:41;;;;;;;;;;;12.90;46.30;;;;;;4378693;32;20089;-39
2021/10/19 02:27:08;;;;;;;;;;;12.90;46.30;;;;;;4378246;32;19969;-39
2021/10/19 02:29:34;;;;;;;;;;;12.90;46.30;;;;;;4378163;32;20059;-40
2021/10/19 02:32:00;;;;;;;;;;;13.00;46.30;;;;;;4378074;32;19958;-40
2021/10/19 02:34:26;;;;;;;;;;;13.00;46.10;;;;;;4378439;32;20385;-40
2021/10/19 02:36:52;;;;;;;;;;;13.10;46.00;;;;;;4378224;32;19981;-37
2021/10/19 02:39:19;;;;;;;;;;;13.00;46.00;;;;;;4378420;32;19966;-39
2021/10/19 02:41:45;;;;;;;;;;;13.00;46.10;;;;;;4378373;32;20028;-40
2021/10/19 02:44:11;;;;;;;;;;;13.00;46.10;;;;;;4377811;32;19966;-39
2021/10/19 02:46:37;;;;;;;;;;;13.00;46.20;;;;;;4353949;32;19993;-39
2021/10/19 02:49:04;;;;;;;;;;;12.90;46.10;;;;;;4363121;32;19997;-39
2021/10/19 02:51:30;;;;;;;;;;;12.90;46.10;;;;;;4361023;32;19981;-37
2021/10/19 02:53:56;;;;;;;;;;;12.90;46.30;;;;;;4361360;32;19967;-39
2021/10/19 02:56:23;;;;;;;;;;;12.90;46.30;;;;;;4346856;32;19974;-40
2021/10/19 02:58:49;;;;;;;;;;;13.00;46.30;;;;;;4360889;32;20383;-40
2021/10/19 03:01:16;;;;;;;;;;;12.90;46.10;;;;;;4360873;32;19978;-40
2021/10/19 03:03:42;;;;;;;;;;;12.90;46.10;;;;;;4360695;32;19981;-40
2021/10/19 03:06:08;;;;;;;;;;;12.90;46.10;;;;;;4360461;32;19958;-40
2021/10/19 03:08:34;;;;;;;;;;;12.80;46.00;;;;;;4360281;32;19985;-38
2021/10/19 03:11:02;;;;;;;;;;;12.80;46.10;;;;;;4360619;32;20356;-40
2021/10/19 03:13:28;;;;;;;;;;;12.60;46.10;;;;;;4360646;32;19974;-39
2021/10/19 03:15:55;;;;;;;;;;;12.60;46.30;;;;;;4360083;32;20042;-39
2021/10/19 03:18:22;;;;;;;;;;;12.60;46.40;;;;;;4360616;32;20461;-41
2021/10/19 03:20:48;;;;;;;;;;;12.50;46.40;;;;;;4360352;32;20470;-40
2021/10/19 03:23:16;;;;;;;;;;;12.40;46.50;;;;;;4360333;32;20059;-39
2021/10/19 03:25:42;;;;;;;;;;;12.40;46.60;;;;;;4360246;32;19973;-39
2021/10/19 03:28:08;;;;;;;;;;;12.40;46.70;;;;;;4360082;32;20079;-39
2021/10/19 03:30:35;;;;;;;;;;;12.30;46.70;;;;;;4360359;32;20002;-39
2021/10/19 03:33:02;;;;;;;;;;;12.20;46.70;;;;;;4346236;32;19993;-40
2021/10/19 03:35:28;;;;;;;;;;;12.20;46.80;;;;;;4360179;32;20071;-39
2021/10/19 03:37:55;;;;;;;;;;;12.10;46.90;;;;;;4359812;32;19962;-39
2021/10/19 03:40:22;;;;;;;;;;;12.10;47.10;;;;;;4359892;32;20034;-40
2021/10/19 03:42:48;;;;;;;;;;;12.10;47.20;;;;;;4359631;32;20001;-39
2021/10/19 03:45:15;;;;;;;;;;;12.10;47.20;;;;;;4361825;32;20047;-39
2021/10/19 03:47:41;;;;;;;;;;;12.10;47.20;;;;;;4374702;32;19989;-39
2021/10/19 03:50:08;;;;;;;;;;;12.10;47.20;;;;;;4374971;32;19986;-39
2021/10/19 03:52:35;;;;;;;;;;;12.10;47.30;;;;;;4360895;32;20406;-38
2021/10/19 03:55:01;;;;;;;;;;;12.20;47.40;;;;;;4374808;32;20419;-40
2021/10/19 03:57:27;;;;;;;;;;;12.10;47.20;;;;;;4374640;32;19963;-39
2021/10/19 03:59:53;;;;;;;;;;;12.10;47.20;;;;;;4374897;32;19974;-39
2021/10/19 04:02:20;;;;;;;;;;;12.10;47.20;;;;;;4374181;32;19957;-40
2021/10/19 04:04:46;;;;;;;;;;;12.10;47.40;;;;;;4374297;32;20390;-40
2021/10/19 04:07:13;;;;;;;;;;;12.00;47.50;;;;;;4374807;32;20448;-40
2021/10/19 04:09:40;;;;;;;;;;;12.00;47.50;;;;;;4374388;32;20398;-39
2021/10/19 04:12:08;;;;;;;;;;;12.10;47.60;;;;;;4374073;32;19969;-39
2021/10/19 04:14:34;;;;;;;;;;;12.10;47.60;;;;;;4374761;32;19978;-39
2021/10/19 04:17:01;;;;;;;;;;;12.20;47.70;;;;;;4374454;32;19964;-39
2021/10/19 04:19:28;;;;;;;;;;;12.20;47.70;;;;;;4374652;32;19966;-39
2021/10/19 04:21:54;;;;;;;;;;;12.30;47.70;;;;;;4374514;32;19978;-40
2021/10/19 04:24:20;;;;;;;;;;;12.40;47.40;;;;;;4374332;32;19981;-40
2021/10/19 04:26:46;;;;;;;;;;;12.40;47.00;;;;;;4374544;32;20094;-39
2021/10/19 04:29:13;;;;;;;;;;;12.40;47.00;;;;;;4374468;32;20378;-39
2021/10/19 04:31:39;;;;;;;;;;;12.50;46.80;;;;;;4374148;32;19969;-39
2021/10/19 04:34:06;;;;;;;;;;;12.60;46.80;;;;;;4374637;32;20046;-39
2021/10/19 04:36:32;;;;;;;;;;;12.70;46.30;;;;;;4360270;32;20445;-40
2021/10/19 04:38:59;;;;;;;;;;;12.80;46.20;;;;;;4374063;32;19973;-40
2021/10/19 04:41:25;;;;;;;;;;;12.90;46.20;;;;;;4374146;32;19958;-40
2021/10/19 04:43:51;;;;;;;;;;;13.00;46.10;;;;;;4374004;32;20041;-39
2021/10/19 04:46:18;;;;;;;;;;;13.20;45.50;;;;;;4352157;32;20045;-40
2021/10/19 04:48:44;;;;;;;;;;;13.40;44.70;;;;;;4359047;32;20443;-39
2021/10/19 04:51:10;;;;;;;;;;;13.50;44.40;;;;;;4359280;32;20388;-39
2021/10/19 04:53:36;;;;;;;;;;;13.70;43.90;;;;;;4359156;32;19994;-39
2021/10/19 04:56:04;;;;;;;;;;;13.80;43.40;;;;;;4358768;32;19982;-39
2021/10/19 04:58:30;;;;;;;;;;;13.90;43.40;;;;;;4344714;32;19985;-38
2021/10/19 05:00:56;;;;;;;;;;;14.20;43.70;;;;;;4359180;32;20062;-39
2021/10/19 05:03:23;;;;;;;;;;;14.50;43.70;;;;;;4358678;32;20375;-39
2021/10/19 05:05:50;;;;;;;;;;;14.80;43.40;;;;;;4326126;33;20013;-38
2021/10/19 05:08:16;;;;;;;;;;;15.00;42.20;;;;;;4326742;33;20395;-39
2021/10/19 05:10:45;;;;;;;;;;;15.20;42.20;;;;;;4326663;33;20033;-37
2021/10/19 05:13:11;;;;;;;;;;;15.40;40.20;;;;;;4326434;33;20503;-39
2021/10/19 05:15:38;;;;;;;;;;;15.60;39.50;;;;;;4326579;33;20538;-39
2021/10/19 05:18:04;;;;;;;;;;;15.70;38.80;;;;;;4326657;33;20521;-39
2021/10/19 05:20:30;;;;;;;;;;;15.80;38.80;;;;;;4326414;33;19971;-39
2021/10/19 05:22:59;;;;;;;;;;;15.90;38.80;;;;;;4326161;33;20515;-39
2021/10/19 05:25:25;;;;;;;;;;;15.90;37.50;;;;;;4314527;33;19966;-39
2021/10/19 05:27:51;;;;;;;;;;;16.00;37.50;;;;;;4326524;33;19971;-39
2021/10/19 05:30:19;;;;;;;;;;;16.00;37.90;;;;;;4326340;33;19985;-38
2021/10/19 05:32:45;;;;;;;;;;;16.10;37.80;;;;;;4326584;33;19978;-39
2021/10/19 05:35:12;;;;;;;;;;;16.20;37.80;;;;;;4326302;33;19978;-39
2021/10/19 05:37:38;;;;;;;;;;;16.30;37.40;;;;;;4326143;33;20516;-39
2021/10/19 05:40:05;;;;;;;;;;;16.40;37.40;;;;;;4325957;33;20002;-38
2021/10/19 05:42:31;;;;;;;;;;;16.60;37.70;;;;;;4332479;32;19961;-38
2021/10/19 05:44:57;;;;;;;;;;;16.70;36.30;;;;;;4358168;32;20045;-39
2021/10/19 05:47:23;;;;;;;;;;;16.80;36.00;;;;;;4373026;32;20415;-39
2021/10/19 05:49:49;;;;;;;;;;;16.90;36.20;;;;;;4373090;32;20384;-39
2021/10/19 05:52:16;;;;;;;;;;;17.00;36.20;;;;;;4373486;32;20410;-39
2021/10/19 05:54:42;;;;;;;;;;;17.20;36.30;;;;;;4359650;32;19972;-37
2021/10/19 05:57:08;;;;;;;;;;;17.30;36.10;;;;;;4373857;32;19966;-39
2021/10/19 05:59:34;;;;;;;;;;;17.40;35.70;;;;;;4372966;32;19954;-39
2021/10/19 06:02:02;;;;;;;;;;;17.40;35.10;;;;;;4373117;32;19962;-39
2021/10/19 06:04:29;;;;;;;;;;;17.40;34.60;;;;;;4372935;32;20456;-39
2021/10/19 06:06:56;;;;;;;;;;;17.30;34.60;;;;;;4373137;32;19978;-38
2021/10/19 06:09:23;;;;;;;;;;;17.20;34.60;;;;;;4373122;32;20106;-39
2021/10/19 06:11:49;;;;;;;;;;;17.20;34.60;;;;;;4372819;32;20496;-40
2021/10/19 06:14:16;;;;;;;;;;;17.10;34.30;;;;;;4372929;32;20000;-40
2021/10/19 06:16:42;;;;;;;;;;;17.10;34.40;;;;;;4372784;32;20070;-39
2021/10/19 06:19:08;;;;;;;;;;;17.20;34.40;;;;;;4359264;32;19961;-38
2021/10/19 06:21:35;;;;;;;;;;;17.20;34.10;;;;;;4372833;32;19974;-38
2021/10/19 06:24:01;;;;;;;;;;;17.30;32.70;;;;;;4372813;32;20090;-39
2021/10/19 06:26:33;;;;;;;;;;;17.40;32.40;;;;;;4374198;32;20427;-38
2021/10/19 06:29:00;;;;;;;;;;;17.30;30.70;;;;;;4375598;32;19985;-39
2021/10/19 06:31:26;;;;;;;;;;;17.30;31.00;;;;;;4375856;32;20515;-39
2021/10/19 06:33:52;;;;;;;;;;;17.30;31.20;;;;;;4361797;32;20417;-38
2021/10/19 06:36:18;;;;;;;;;;;17.20;30.60;;;;;;4375832;32;20053;-37
2021/10/19 06:38:45;;;;;;;;;;;17.10;30.80;;;;;;4375943;32;19970;-38
2021/10/19 06:41:11;;;;;;;;;;;17.10;31.20;;;;;;4375805;32;19981;-39
2021/10/19 06:43:37;;;;;;;;;;;17.10;30.80;;;;;;4376007;32;20504;-39
2021/10/19 06:46:04;;;;;;;;;;;17.20;30.70;;;;;;4354680;32;19998;-39
2021/10/19 06:48:30;;;;;;;;;;;17.20;31.10;;;;;;4360742;32;20061;-38
2021/10/19 06:50:56;;;;;;;;;;;17.30;31.20;;;;;;4360497;32;20477;-38
2021/10/19 06:53:22;;;;;;;;;;;17.30;31.00;;;;;;4360192;32;19969;-38
2021/10/19 06:55:48;;;;;;;;;;;17.40;30.70;;;;;;4360417;32;19986;-38
2021/10/19 06:58:15;;;;;;;;;;;17.30;30.60;;;;;;4346842;32;19963;-38
2021/10/19 07:00:41;;;;;;;;;;;17.30;30.20;;;;;;4346621;32;19973;-39
2021/10/19 07:03:08;;;;;;;;;;;17.40;30.50;;;;;;4360315;32;20403;-39
2021/10/19 07:05:34;;;;;;;;;;;17.40;30.50;;;;;;4360630;32;20041;-39
2021/10/19 07:08:00;;;;;;;;;;;17.60;30.70;;;;;;4360255;32;20556;-38
2021/10/19 07:10:26;;;;;;;;;;;17.80;31.20;;;;;;4360407;32;20061;-39
2021/10/19 07:12:53;;;;;;;;;;;17.90;31.20;;;;;;4359854;32;19958;-40
2021/10/19 07:15:19;;;;;;;;;;;18.10;31.20;;;;;;4346831;32;19978;-38
2021/10/19 07:17:47;;;;;;;;;;;18.30;31.00;;;;;;4360083;32;20053;-38
2021/10/19 07:20:13;;;;;;;;;;;18.40;31.10;;;;;;4360496;32;19975;-38
2021/10/19 07:22:39;;;;;;;;;;;18.50;30.90;;;;;;4359800;32;19986;-39
2021/10/19 07:25:06;;;;;;;;;;;18.60;30.60;;;;;;4360004;32;20484;-40
2021/10/19 07:27:33;;;;;;;;;;;18.50;29.00;;;;;;4359859;32;20033;-40
2021/10/19 07:29:59;;;;;;;;;;;18.60;28.90;;;;;;4360045;32;19978;-40
2021/10/19 07:32:26;;;;;;;;;;;18.70;28.60;;;;;;4359976;32;19970;-39
2021/10/19 07:34:52;;;;;;;;;;;18.90;29.10;;;;;;4346177;32;19970;-41
2021/10/19 07:37:19;;;;;;;;;;;19.00;29.20;;;;;;4359356;32;19974;-39
2021/10/19 07:39:45;;;;;;;;;;;18.90;29.30;;;;;;4360141;32;20039;-40
2021/10/19 07:42:12;;;;;;;;;;;18.80;28.90;;;;;;4359969;32;20047;-40
2021/10/19 07:44:38;;;;;;;;;;;18.70;29.00;;;;;;4359707;32;20071;-39
2021/10/19 07:47:04;;;;;;;;;;;18.50;29.40;;;;;;4373209;32;19982;-38
2021/10/19 07:49:31;;;;;;;;;;;18.50;29.60;;;;;;4360714;32;20409;-38
2021/10/19 07:51:57;;;;;;;;;;;18.50;28.60;;;;;;4374358;32;19981;-39
2021/10/19 07:54:23;;;;;;;;;;;18.60;28.50;;;;;;4374493;32;19989;-39
2021/10/19 07:56:49;;;;;;;;;;;18.70;28.50;;;;;;4374154;32;20378;-37
2021/10/19 07:59:15;;;;;;;;;;;18.90;29.00;;;;;;4374888;32;19962;-47
2021/10/19 08:01:42;;;;;;;;;;;18.90;28.40;;;;;;4374601;32;20044;-38
2021/10/19 08:04:08;;;;;;;;;;;19.00;27.70;;;;;;4374275;32;19994;-39
2021/10/19 08:06:35;;;;;;;;;;;19.10;27.20;;;;;;4374364;32;19961;-40
2021/10/19 08:09:07;;;;;;;;;;;19.20;27.30;;;;;;4374250;32;20429;-38
2021/10/19 08:11:36;;;;;;;;;;;19.40;27.50;;;;;;4360426;32;19970;-39
2021/10/19 08:14:02;;;;;;;;;;;19.50;27.40;;;;;;4374303;32;20475;-40
2021/10/19 08:16:28;;;;;;;;;;;19.60;27.30;;;;;;4374360;32;19969;-38
2021/10/19 08:18:54;;;;;;;;;;;19.70;27.20;;;;;;4373679;32;19985;-39
2021/10/19 08:21:20;;;;;;;;;;;19.80;27.00;;;;;;4373948;32;20021;-38
2021/10/19 08:23:47;;;;;;;;;;;19.80;27.00;;;;;;4360196;32;20399;-39
2021/10/19 08:26:13;;;;;;;;;;;19.90;26.90;;;;;;4360620;32;19990;-38
2021/10/19 08:28:43;;;;;;;;;;;19.90;27.10;;;;;;4360003;32;20001;-39
2021/10/19 08:31:10;;;;;;;;;;;19.80;26.90;;;;;;4374304;32;20995;-40
2021/10/19 08:33:37;;;;;;;;;;;19.70;26.70;;;;;;4374055;32;19970;-40
2021/10/19 08:36:04;;;;;;;;;;;19.70;26.50;;;;;;4373973;32;20027;-39
2021/10/19 08:38:31;;;;;;;;;;;19.70;26.60;;;;;;4374025;32;19962;-39
2021/10/19 08:40:57;;;;;;;;;;;19.80;26.80;;;;;;4374273;32;19985;-39
2021/10/19 08:43:23;;;;;;;;;;;19.80;27.10;;;;;;4374058;32;19974;-39
2021/10/19 08:45:51;;;;;;;;;;;19.70;27.30;;;;;;4354274;32;20457;-40
2021/10/19 08:48:17;;;;;;;;;;;19.70;27.50;;;;;;4359107;32;20061;-40
2021/10/19 08:50:44;;;;;;;;;;;19.70;27.00;;;;;;4357680;32;20625;-40
2021/10/19 08:53:11;;;;;;;;;;;19.60;26.90;;;;;;4344646;32;19977;-39
2021/10/19 08:55:38;;;;;;;;;;;19.70;27.20;;;;;;4358538;32;20413;-40
2021/10/19 08:58:09;;;;;;;;;;;19.70;27.40;;;;;;4358693;32;20446;-39
2021/10/19 09:00:36;;;;;;;;;;;19.70;27.50;;;;;;4345320;32;20428;-40
2021/10/19 09:03:03;;;;;;;;;;;19.80;27.50;;;;;;4345286;32;20372;-39
2021/10/19 09:05:29;;;;;;;;;;;19.70;26.70;;;;;;4345096;32;20513;-37
2021/10/19 09:08:03;;;;;;;;;;;19.70;26.90;;;;;;4358931;32;19963;-37
2021/10/19 09:10:34;;;;;;;;;;;19.60;26.80;;;;;;4358596;32;19974;-39
2021/10/19 09:13:02;;;;;;;;;;;19.60;27.20;;;;;;4358536;32;19959;-38
2021/10/19 09:15:33;;;;;;;;;;;19.50;27.20;;;;;;4358933;32;19986;-38
2021/10/19 09:18:03;;;;;;;;;;;19.40;27.20;;;;;;4358604;32;19977;-39
2021/10/19 09:20:30;;;;;;;;;;;19.50;27.30;;;;;;4358234;32;19978;-38
2021/10/19 09:23:01;;;;;;;;;;;19.40;27.30;;;;;;4344865;32;20036;-39
2021/10/19 09:25:28;;;;;;;;;;;19.30;27.30;;;;;;4358668;32;20569;-38
2021/10/19 09:27:55;;;;;;;;;;;19.10;27.40;;;;;;4358361;32;19963;-39
2021/10/19 09:30:31;;;;;;;;;;;18.90;27.50;;;;;;4358759;32;19959;-40
2021/10/19 09:32:57;;;;;;;;;;;18.80;27.90;;;;;;4358468;32;20055;-40
2021/10/19 09:35:24;;;;;;;;;;;18.80;28.10;;;;;;4340779;33;20109;-39
2021/10/19 09:38:01;;;;;;;;;;;18.80;27.90;;;;;;4341387;33;19975;-40
2021/10/19 09:40:41;;;;;;;;;;;19.00;28.10;;;;;;4340861;33;20471;-40
2021/10/19 09:43:09;;;;;;;;;;;19.10;28.00;;;;;;4340772;33;20513;-40
2021/10/19 09:45:35;;;;;;;;;;;19.20;27.70;;;;;;4344719;32;20459;-40
2021/10/19 09:48:02;;;;;;;;;;;19.30;27.90;;;;;;4355354;32;20086;-40
2021/10/19 09:50:29;;;;;;;;;;;19.40;27.90;;;;;;4355624;32;20448;-40
2021/10/19 09:52:55;;;;;;;;;;;19.50;27.80;;;;;;4355862;32;19966;-40
2021/10/19 09:55:23;;;;;;;;;;;19.70;27.80;;;;;;4355849;32;20009;-41
2021/10/19 09:57:51;;;;;;;;;;;19.90;27.20;;;;;;4355844;32;19974;-40
2021/10/19 10:00:17;;;;;;;;;;;20.00;27.30;;;;;;4356029;32;20016;-42
2021/10/19 10:02:44;;;;;;;;;;;20.10;27.20;;;;;;4358444;32;19986;-39
2021/10/19 10:05:11;;;;;;;;;;;20.20;27.30;;;;;;4358841;32;20000;-40
2021/10/19 10:07:39;;;;;;;;;;;20.40;27.10;;;;;;4358397;32;19980;-40
2021/10/19 10:10:06;;;;;;;;;;;20.50;27.10;;;;;;4333994;32;20422;-40
2021/10/19 10:12:33;;;;;;;;;;;20.70;26.90;;;;;;4349517;32;20438;-39
2021/10/19 10:14:59;;;;;;;;;;;20.70;26.50;;;;;;4360920;32;19962;-40
2021/10/19 10:17:25;;;;;;;;;;;20.60;26.60;;;;;;4361284;32;19963;-38
2021/10/19 10:19:52;;;;;;;;;;;20.50;26.70;;;;;;4360720;32;19998;-40
2021/10/19 10:22:28;;;;;;;;;;;20.50;26.20;;;;;;4361168;32;19982;-40
2021/10/19 10:25:04;;;;;;;;;;;20.40;26.10;;;;;;4361417;32;20042;-40
2021/10/19 10:27:30;;;;;;;;;;;20.40;26.20;;;;;;4361216;32;19970;-40
2021/10/19 10:29:56;;;;;;;;;;;20.40;26.30;;;;;;4359488;32;20041;-39
2021/10/19 10:32:29;;;;;;;;;;;20.20;25.90;;;;;;4360782;32;20057;-40
2021/10/19 10:35:12;;;;;;;;;;;20.30;26.10;;;;;;4361201;32;19962;-41
2021/10/19 10:37:47;;;;;;;;;;;20.40;26.30;;;;;;4360610;32;19986;-42
2021/10/19 10:40:24;;;;;;;;;;;20.50;26.10;;;;;;4360673;32;20379;-41
2021/10/19 10:42:51;;;;;;;;;;;20.50;26.40;;;;;;4359456;32;20143;-40
2021/10/19 10:45:20;;;;;;;;;;;20.40;26.60;;;;;;4360911;32;20000;-40
2021/10/19 10:47:48;;;;;;;;;;;20.20;26.70;;;;;;4360734;32;20508;-41
2021/10/19 10:50:14;;;;;;;;;;;20.00;27.00;;;;;;4360395;32;20053;-41
2021/10/19 10:52:41;;;;;;;;;;;20.00;27.40;;;;;;4360312;32;19970;-41
2021/10/19 10:55:13;;;;;;;;;;;19.90;27.30;;;;;;4346587;32;20038;-42
2021/10/19 10:57:44;;;;;;;;;;;19.80;27.80;;;;;;4360671;32;20406;-42
2021/10/19 11:00:11;;;;;;;;;;;19.70;27.60;;;;;;4360285;32;19970;-41
2021/10/19 11:02:37;;;;;;;;;;;19.80;27.70;;;;;;4346206;32;19974;-40
2021/10/19 11:05:04;;;;;;;;;;;19.90;27.70;;;;;;4360016;32;20359;-41
2021/10/19 11:07:37;;;;;;;;;;;19.90;27.60;;;;;;4360508;32;19962;-40
2021/10/19 11:10:14;;;;;;;;;;;19.90;27.50;;;;;;4346341;32;19980;-42
2021/10/19 11:12:42;;;;;;;;;;;19.90;27.60;;;;;;4359480;32;19954;-42
2021/10/19 11:15:17;;;;;;;;;;;19.80;27.50;;;;;;4346300;32;20386;-42
2021/10/19 11:17:49;;;;;;;;;;;19.80;27.50;;;;;;4360270;32;20403;-41
2021/10/19 11:20:19;;;;;;;;;;;19.70;27.70;;;;;;4360243;32;20045;-43
2021/10/19 11:22:46;;;;;;;;;;;19.90;27.80;;;;;;4360418;32;19974;-42
2021/10/19 11:25:12;;;;;;;;;;;20.00;27.60;;;;;;4360451;32;19966;-42
2021/10/19 11:27:39;;;;;;;;;;;20.00;27.50;;;;;;4342707;33;19967;-43
2021/10/19 11:30:07;;;;;;;;;;;20.10;27.50;;;;;;4342557;33;20065;-40
2021/10/19 11:32:36;;;;;;;;;;;20.00;27.40;;;;;;4343046;33;20400;-41
2021/10/19 11:35:03;;;;;;;;;;;20.10;27.60;;;;;;4342563;33;20500;-41
2021/10/19 11:37:29;;;;;;;;;;;20.20;27.60;;;;;;4330430;33;20492;-40
2021/10/19 11:40:06;;;;;;;;;;;20.40;27.80;;;;;;4330602;33;19998;-42
2021/10/19 11:42:50;;;;;;;;;;;20.50;27.60;;;;;;4342860;33;20039;-42
2021/10/19 11:45:18;;;;;;;;;;;20.70;27.40;;;;;;4344386;32;20088;-42
2021/10/19 11:47:46;;;;;;;;;;;20.90;27.20;;;;;;4357005;32;20452;-42
2021/10/19 11:50:13;;;;;;;;;;;21.20;26.90;;;;;;4327561;33;19979;-44
2021/10/19 11:52:39;;;;;;;;;;;21.60;26.70;;;;;;4327465;33;19972;-42
2021/10/19 11:55:06;;;;;;;;;;;21.80;26.70;;;;;;4315320;33;19978;-40
2021/10/19 11:57:38;;;;;;;;;;;21.90;26.50;;;;;;4315859;33;19991;-40
2021/10/19 12:00:10;;;;;;;;;;;21.80;26.50;;;;;;4342557;33;20486;-42
2021/10/19 12:02:58;;;;;;;;;;;21.80;26.70;;;;;;4342581;33;20075;-41
2021/10/19 12:05:26;;;;;;;;;;;21.90;26.80;;;;;;4342557;33;19974;-42
2021/10/19 12:07:54;;;;;;;;;;;21.90;26.80;;;;;;4329982;33;20057;-42
2021/10/19 12:10:25;;;;;;;;;;;21.90;26.80;;;;;;4342045;33;19966;-42
2021/10/19 12:12:52;;;;;;;;;;;22.00;26.70;;;;;;4342243;33;20050;-42
2021/10/19 12:15:23;;;;;;;;;;;22.00;26.60;;;;;;4342092;33;20111;-42
2021/10/19 12:18:00;;;;;;;;;;;21.90;26.60;;;;;;4342179;33;20426;-42
2021/10/19 12:20:31;;;;;;;;;;;21.90;26.60;;;;;;4341718;33;19974;-43
2021/10/19 12:22:59;;;;;;;;;;;21.70;26.60;;;;;;4341761;33;19974;-42
2021/10/19 12:25:25;;;;;;;;;;;21.40;26.70;;;;;;4342059;33;20052;-46
2021/10/19 12:27:51;;;;;;;;;;;21.20;26.80;;;;;;4360526;32;19969;-43
2021/10/19 12:30:18;;;;;;;;;;;21.00;26.90;;;;;;4360121;32;19962;-42
2021/10/19 12:32:45;;;;;;;;;;;20.90;27.00;;;;;;4373722;32;20371;-41
2021/10/19 12:35:11;;;;;;;;;;;20.60;27.10;;;;;;4373944;32;20055;-43
2021/10/19 12:37:39;;;;;;;;;;;20.40;27.30;;;;;;4374370;32;20074;-42
2021/10/19 12:40:06;;;;;;;;;;;20.20;27.50;;;;;;4373846;32;19973;-42
2021/10/19 12:42:33;;;;;;;;;;;20.00;27.60;;;;;;4360031;32;20402;-41
2021/10/19 12:44:59;;;;;;;;;;;19.90;27.80;;;;;;4373283;32;20403;-43
2021/10/19 12:47:25;;;;;;;;;;;19.80;27.80;;;;;;4358617;32;19955;-42
2021/10/19 12:49:53;;;;;;;;;;;19.70;28.00;;;;;;4358748;32;20033;-42
2021/10/19 12:52:20;;;;;;;;;;;19.60;27.90;;;;;;4358846;32;19981;-44
2021/10/19 12:54:46;;;;;;;;;;;19.50;27.90;;;;;;4358843;32;19965;-44
2021/10/19 12:57:14;;;;;;;;;;;19.50;28.00;;;;;;4359249;32;19967;-43
2021/10/19 12:59:42;;;;;;;;;;;19.40;28.00;;;;;;4359164;32;19966;-44
2021/10/19 13:02:08;;;;;;;;;;;19.40;28.10;;;;;;4358661;32;19978;-43
2021/10/19 13:04:34;;;;;;;;;;;19.30;28.10;;;;;;4358765;32;19973;-43
2021/10/19 13:07:03;;;;;;;;;;;19.20;28.20;;;;;;4345332;32;20483;-44
2021/10/19 13:09:30;;;;;;;;;;;19.20;28.20;;;;;;4359261;32;20389;-43
2021/10/19 13:11:57;;;;;;;;;;;19.00;28.20;;;;;;4358505;32;19992;-42
2021/10/19 13:14:23;;;;;;;;;;;18.80;28.20;;;;;;4358673;32;20453;-43
2021/10/19 13:16:50;;;;;;;;;;;18.60;28.30;;;;;;4358420;32;20414;-44
2021/10/19 13:19:17;;;;;;;;;;;18.50;28.40;;;;;;4345103;32;19973;-43
2021/10/19 13:21:44;;;;;;;;;;;18.30;28.50;;;;;;4358556;32;19989;-43
2021/10/19 13:24:11;;;;;;;;;;;18.30;28.60;;;;;;4358312;32;19959;-43
2021/10/19 13:26:37;;;;;;;;;;;18.20;28.60;;;;;;4358398;32;19958;-42
2021/10/19 13:29:03;;;;;;;;;;;18.00;28.60;;;;;;4358795;32;19967;-43
2021/10/19 13:31:29;;;;;;;;;;;17.90;28.70;;;;;;4358350;32;19978;-43
2021/10/19 13:33:56;;;;;;;;;;;17.70;28.60;;;;;;4358470;32;20103;-43
2021/10/19 13:36:22;;;;;;;;;;;17.50;28.70;;;;;;4358239;32;19962;-43
2021/10/19 13:38:48;;;;;;;;;;;17.50;28.90;;;;;;4358634;32;19968;-43
2021/10/19 13:41:14;;;;;;;;;;;17.60;29.10;;;;;;4358604;32;19968;-43
2021/10/19 13:43:41;;;;;;;;;;;17.70;29.10;;;;;;4358549;32;20054;-42
2021/10/19 13:46:07;;;;;;;;;;;17.70;28.90;;;;;;4366007;32;20433;-43
2021/10/19 13:48:35;;;;;;;;;;;17.60;28.90;;;;;;4373274;32;20382;-44
2021/10/19 13:51:02;;;;;;;;;;;17.50;28.90;;;;;;4373193;32;20395;-43
2021/10/19 13:53:28;;;;;;;;;;;17.40;29.00;;;;;;4373330;32;20005;-43
2021/10/19 13:55:54;;;;;;;;;;;17.30;29.00;;;;;;4372990;32;19970;-42
2021/10/19 13:58:20;;;;;;;;;;;17.20;29.10;;;;;;4373087;32;19963;-43
2021/10/19 14:00:47;;;;;;;;;;;17.10;29.20;;;;;;4373250;32;20440;-45
2021/10/19 14:03:13;;;;;;;;;;;17.00;29.50;;;;;;4373179;32;19988;-43
2021/10/19 14:05:41;;;;;;;;;;;16.80;29.70;;;;;;4373257;32;20109;-43
2021/10/19 14:08:10;;;;;;;;;;;16.70;30.00;;;;;;4373336;32;19981;-43
2021/10/19 14:10:39;;;;;;;;;;;16.50;30.00;;;;;;4372990;32;19954;-42
2021/10/19 14:13:05;;;;;;;;;;;16.40;30.40;;;;;;4373310;32;19965;-43
2021/10/19 14:15:32;;;;;;;;;;;16.20;30.60;;;;;;4372975;32;20479;-43